Terminal Aerodrome Forecast
Issued by NWS Sioux Falls, SD

Home | Current Version | Previous Version | Graphics & Text | Print | Product List | Glossary Off
Versions: 1 2 3 4 5 6 7 8 9 10 11 12 13 14 15 16

000
FTUS43 KFSD 300520
TAFSUX
TAF
KSUX 300520Z 3006/3106 10004KT P6SM VCTS SCT070CB
     FM301300 13007KT P6SM SCT070
     FM301900 16011KT P6SM SCT050
     FM310200 16010KT P6SM VCTS BKN050CB
     FM310400 17009KT P6SM -TSRA BKN050CB=

USA.gov is the U.S. government's official web portal to all federal, state and local government web resources and services.